Time;durP1;ratioP1;P1;durP2;ratioP2;P2;SDS_P1;SDS_P2;PMS_P1;PMS_P2;Temp;Humidity;BMP_temperature;BMP_pressure;BME280_temperature;BME280_humidity;BME280_pressure;Samples;Min_cycle;Max_cycle;Signal;HPM_P1;HPM_P2
2021/12/06 00:01:01;;;;;;;42.42;25.85;;;5.10;99.90;;;;;;5056682;28;20140;-71
2021/12/06 00:03:47;;;;;;;37.97;23.95;;;5.10;99.90;;;;;;5058191;28;20082;-71
2021/12/06 00:06:16;;;;;;;42.10;24.33;;;5.00;99.90;;;;;;5046878;28;20040;-71
2021/12/06 00:08:41;;;;;;;47.88;26.67;;;5.00;99.90;;;;;;5063358;28;20017;-71
2021/12/06 00:11:08;;;;;;;58.67;27.63;;;4.90;99.90;;;;;;5067168;28;20358;-70
2021/12/06 00:13:35;;;;;;;51.38;28.25;;;4.90;99.90;;;;;;5055448;28;20118;-71
2021/12/06 00:16:06;;;;;;;56.10;29.63;;;4.90;99.90;;;;;;5061489;28;20091;-71
2021/12/06 00:18:32;;;;;;;68.63;26.13;;;4.90;99.90;;;;;;5061869;28;20484;-71
2021/12/06 00:20:58;;;;;;;102.63;30.77;;;4.80;99.90;;;;;;5051256;28;20036;-70
2021/12/06 00:23:23;;;;;;;125.05;26.50;;;4.80;99.90;;;;;;5056435;28;20021;-71
2021/12/06 00:25:49;;;;;;;61.80;24.40;;;4.80;99.90;;;;;;5069338;28;20067;-70
2021/12/06 00:28:15;;;;;;;54.15;24.15;;;4.80;99.90;;;;;;5060265;28;20021;-70
2021/12/06 00:30:40;;;;;;;62.13;23.75;;;4.70;99.90;;;;;;5062017;28;20051;-70
2021/12/06 00:33:06;;;;;;;63.95;24.80;;;4.70;99.90;;;;;;5065558;28;20480;-71
2021/12/06 00:35:32;;;;;;;144.43;27.73;;;4.70;99.90;;;;;;5056521;28;20150;-71
2021/12/06 00:37:58;;;;;;;192.05;26.27;;;4.70;99.90;;;;;;5068495;28;20512;-72
2021/12/06 00:40:46;;;;;;;240.82;27.88;;;4.70;99.90;;;;;;5060260;28;20028;-71
2021/12/06 00:43:12;;;;;;;108.72;24.13;;;4.70;99.90;;;;;;5057662;28;20035;-71
2021/12/06 00:45:39;;;;;;;165.23;24.65;;;4.70;99.90;;;;;;5063133;28;20163;-71
2021/12/06 00:48:05;;;;;;;103.97;22.52;;;4.70;99.90;;;;;;5067059;28;20033;-71
2021/12/06 00:50:34;;;;;;;69.95;22.85;;;4.70;99.90;;;;;;5053284;28;20512;-71
2021/12/06 00:53:02;;;;;;;62.55;21.23;;;4.60;99.90;;;;;;5058566;28;20039;-71
2021/12/06 00:55:28;;;;;;;146.32;25.85;;;4.60;99.90;;;;;;5055455;28;20021;-71
2021/12/06 00:57:54;;;;;;;65.68;22.52;;;4.60;99.90;;;;;;5068998;28;20017;-71
2021/12/06 01:00:25;;;;;;;56.35;21.25;;;4.60;99.90;;;;;;5059878;28;20056;-71
2021/12/06 01:02:51;;;;;;;34.95;20.10;;;4.60;99.90;;;;;;5060419;28;20086;-71
2021/12/06 01:05:17;;;;;;;51.22;21.77;;;4.50;99.90;;;;;;5067494;28;20104;-71
2021/12/06 01:07:43;;;;;;;56.25;21.25;;;4.60;99.90;;;;;;5053615;28;20447;-71
2021/12/06 01:10:10;;;;;;;131.63;26.20;;;4.60;99.90;;;;;;5049251;28;20020;-72
2021/12/06 01:12:36;;;;;;;99.25;25.98;;;4.60;99.90;;;;;;5061426;28;20078;-72
2021/12/06 01:15:04;;;;;;;69.15;23.00;;;4.70;99.90;;;;;;5057626;28;20116;-71
2021/12/06 01:17:29;;;;;;;60.63;24.50;;;4.70;99.90;;;;;;5068554;28;20020;-71
2021/12/06 01:19:55;;;;;;;43.38;22.30;;;4.70;99.90;;;;;;5056331;28;20030;-71
2021/12/06 01:22:30;;;;;;;41.97;22.23;;;4.80;99.90;;;;;;5048153;28;20032;-71
2021/12/06 01:25:03;;;;;;;36.10;20.42;;;4.80;99.90;;;;;;5058681;28;20427;-72
2021/12/06 01:30:24;;;;;;;44.67;23.90;;;4.80;99.90;;;;;;5067583;28;20033;-70
2021/12/06 01:40:52;;;;;;;45.00;22.80;;;4.80;99.90;;;;;;5060234;28;20405;-71
2021/12/06 01:43:18;;;;;;;47.78;24.67;;;4.80;99.90;;;;;;5067022;28;20025;-70
2021/12/06 01:45:43;;;;;;;45.10;24.48;;;4.90;99.90;;;;;;5054899;28;20083;-71
2021/12/06 01:48:09;;;;;;;48.28;25.25;;;4.90;99.90;;;;;;5070176;28;20082;-70
2021/12/06 01:50:35;;;;;;;46.55;25.67;;;4.90;99.90;;;;;;5060152;28;20029;-70
2021/12/06 01:53:03;;;;;;;51.35;25.45;;;4.90;99.90;;;;;;5059287;28;20037;-70
2021/12/06 01:55:32;;;;;;;50.00;26.00;;;4.90;99.90;;;;;;5055217;28;20082;-71
2021/12/06 01:58:00;;;;;;;52.95;26.20;;;4.90;99.90;;;;;;5060190;28;20070;-70
2021/12/06 02:00:32;;;;;;;73.07;26.30;;;4.80;99.90;;;;;;5063668;28;20025;-71
2021/12/06 02:02:58;;;;;;;57.08;23.95;;;4.80;99.90;;;;;;5055290;28;20489;-71
2021/12/06 02:05:24;;;;;;;52.67;25.92;;;4.80;99.90;;;;;;5067869;28;20035;-70
2021/12/06 02:07:50;;;;;;;41.03;23.20;;;4.80;99.90;;;;;;5054839;28;20032;-71
2021/12/06 02:10:16;;;;;;;50.92;26.70;;;4.90;99.90;;;;;;5062066;28;20024;-70
2021/12/06 02:12:44;;;;;;;43.28;24.30;;;4.90;99.90;;;;;;5062254;28;20103;-70
2021/12/06 02:18:12;;;;;;;50.67;25.58;;;4.90;99.90;;;;;;5045438;28;20024;-70
2021/12/06 02:20:50;;;;;;;55.70;25.48;;;4.90;99.90;;;;;;5055741;28;20017;-71
2021/12/06 02:23:16;;;;;;;64.47;25.67;;;4.90;99.90;;;;;;5065289;28;20441;-70
2021/12/06 02:25:43;;;;;;;79.45;29.65;;;5.00;99.90;;;;;;5056536;28;20063;-70
2021/12/06 02:28:08;;;;;;;51.83;26.33;;;5.00;99.90;;;;;;5063045;28;20036;-70
2021/12/06 02:30:34;;;;;;;50.92;24.98;;;5.00;99.90;;;;;;5065052;28;21469;-70
2021/12/06 02:33:00;;;;;;;46.15;23.35;;;5.00;99.90;;;;;;5061553;28;20171;-70
2021/12/06 02:35:27;;;;;;;62.15;30.20;;;5.00;99.90;;;;;;5064725;28;20127;-70
2021/12/06 02:37:54;;;;;;;45.05;25.33;;;5.00;99.90;;;;;;5055436;28;20021;-70
2021/12/06 02:40:24;;;;;;;55.58;26.17;;;5.00;99.90;;;;;;5063033;28;20024;-70
2021/12/06 02:42:50;;;;;;;54.47;27.83;;;5.00;99.90;;;;;;5072548;28;20022;-70
2021/12/06 02:45:19;;;;;;;53.63;26.85;;;5.10;99.90;;;;;;5060227;28;20029;-70
2021/12/06 02:47:48;;;;;;;51.33;28.08;;;5.00;99.90;;;;;;5070826;28;20044;-70
2021/12/06 02:50:14;;;;;;;58.17;28.98;;;5.00;99.90;;;;;;5058052;28;20016;-70
2021/12/06 02:52:40;;;;;;;51.38;27.63;;;5.00;99.90;;;;;;5055578;28;20029;-70
2021/12/06 02:55:27;;;;;;;59.47;29.35;;;5.00;99.90;;;;;;5061077;28;20025;-71
2021/12/06 02:57:56;;;;;;;52.78;27.35;;;5.00;99.90;;;;;;5042778;28;20021;-71
2021/12/06 03:00:22;;;;;;;48.13;25.98;;;5.00;99.90;;;;;;5068023;28;20035;-70
2021/12/06 03:02:48;;;;;;;60.58;29.40;;;5.00;99.90;;;;;;5063103;28;20025;-70
2021/12/06 03:05:14;;;;;;;56.47;29.60;;;5.10;99.90;;;;;;5070015;28;20028;-71
2021/12/06 03:07:39;;;;;;;59.50;31.50;;;5.10;99.90;;;;;;5058103;28;20028;-71
2021/12/06 03:10:08;;;;;;;53.75;28.85;;;5.10;99.90;;;;;;5069229;28;20017;-72
2021/12/06 03:12:34;;;;;;;60.83;30.65;;;5.10;99.90;;;;;;5058681;28;20028;-72
2021/12/06 03:15:03;;;;;;;61.55;30.67;;;5.10;99.90;;;;;;5067958;28;21049;-70
2021/12/06 03:17:32;;;;;;;95.72;35.15;;;5.10;99.90;;;;;;5057325;28;20029;-71
2021/12/06 03:20:00;;;;;;;55.97;29.50;;;5.10;99.90;;;;;;5070019;28;20021;-71
2021/12/06 03:22:26;;;;;;;50.60;26.95;;;5.20;99.90;;;;;;5050235;28;20020;-71
2021/12/06 03:24:53;;;;;;;63.10;31.25;;;5.10;99.90;;;;;;5062375;28;20147;-70
2021/12/06 03:27:19;;;;;;;71.00;35.10;;;5.20;99.90;;;;;;5068671;28;20027;-71
2021/12/06 03:29:45;;;;;;;63.78;33.03;;;5.20;99.90;;;;;;5056740;28;20044;-71
2021/12/06 03:32:12;;;;;;;67.07;34.58;;;5.20;99.90;;;;;;5067662;28;20036;-71
2021/12/06 03:34:38;;;;;;;74.25;36.80;;;5.20;99.90;;;;;;5055071;28;20469;-71
2021/12/06 03:37:06;;;;;;;69.03;32.72;;;5.20;99.90;;;;;;5067877;28;20040;-70
2021/12/06 03:39:41;;;;;;;72.40;31.90;;;5.20;99.90;;;;;;5057710;28;20106;-71
2021/12/06 03:42:08;;;;;;;66.22;31.67;;;5.20;99.90;;;;;;5067550;28;20029;-71
2021/12/06 03:44:35;;;;;;;72.03;35.53;;;5.20;99.90;;;;;;5053114;28;20108;-71
2021/12/06 03:47:13;;;;;;;66.90;33.63;;;5.30;99.90;;;;;;5057089;28;20126;-71
2021/12/06 03:49:39;;;;;;;67.18;33.00;;;5.20;99.90;;;;;;5054119;28;20021;-71
2021/12/06 03:52:06;;;;;;;68.10;34.13;;;5.30;99.90;;;;;;5046727;28;20101;-71
2021/12/06 03:54:32;;;;;;;65.25;34.42;;;5.30;99.90;;;;;;5064581;28;20033;-71
2021/12/06 03:56:58;;;;;;;73.63;37.78;;;5.20;99.90;;;;;;5066813;28;20096;-71
2021/12/06 03:59:24;;;;;;;72.88;36.65;;;5.30;99.90;;;;;;5057660;28;20524;-70
2021/12/06 04:01:51;;;;;;;67.53;34.13;;;5.30;99.90;;;;;;5041299;28;20370;-71
2021/12/06 04:04:17;;;;;;;61.97;33.30;;;5.30;99.90;;;;;;5061323;28;20485;-70
2021/12/06 04:06:44;;;;;;;67.82;34.15;;;5.20;99.90;;;;;;5063275;28;20025;-70
2021/12/06 04:09:10;;;;;;;64.82;33.95;;;5.20;99.90;;;;;;5063133;28;20024;-70
2021/12/06 04:11:39;;;;;;;81.07;37.60;;;5.20;99.90;;;;;;5049316;28;20026;-70
2021/12/06 04:14:06;;;;;;;73.05;33.38;;;5.30;99.90;;;;;;5067752;28;20523;-71
2021/12/06 04:16:32;;;;;;;103.43;37.92;;;5.30;99.90;;;;;;5063933;28;20469;-71
2021/12/06 04:18:58;;;;;;;78.13;33.38;;;5.30;99.90;;;;;;5065273;28;20443;-70
2021/12/06 04:21:24;;;;;;;78.45;35.97;;;5.30;99.90;;;;;;5045550;28;20021;-71
2021/12/06 04:23:51;;;;;;;87.95;36.03;;;5.20;99.90;;;;;;5040911;28;20099;-70
2021/12/06 04:26:17;;;;;;;70.35;34.22;;;5.20;99.90;;;;;;5060345;28;20029;-71
2021/12/06 04:28:48;;;;;;;76.50;34.13;;;5.20;99.90;;;;;;5062722;28;20041;-71
2021/12/06 04:31:18;;;;;;;131.00;40.05;;;5.20;99.90;;;;;;5056259;28;20033;-70
2021/12/06 04:33:44;;;;;;;102.57;36.55;;;5.30;99.90;;;;;;5069415;28;20078;-69
2021/12/06 04:36:10;;;;;;;155.77;42.90;;;5.30;99.90;;;;;;5053223;28;20323;-71
2021/12/06 04:38:36;;;;;;;89.32;36.45;;;5.30;99.90;;;;;;5063130;28;20031;-71
2021/12/06 04:41:02;;;;;;;100.60;37.28;;;5.20;99.90;;;;;;5047350;28;20033;-71
2021/12/06 04:43:28;;;;;;;170.15;42.22;;;5.20;99.90;;;;;;5065312;28;20111;-71
2021/12/06 04:45:53;;;;;;;115.10;39.15;;;5.20;99.90;;;;;;5055393;28;20099;-71
2021/12/06 04:48:19;;;;;;;91.10;37.05;;;5.30;99.90;;;;;;5065686;28;20021;-71
2021/12/06 04:50:45;;;;;;;113.53;41.35;;;5.30;99.90;;;;;;5050260;28;20021;-71
2021/12/06 04:53:19;;;;;;;87.38;37.08;;;5.30;99.90;;;;;;5062288;28;20032;-71
2021/12/06 04:55:47;;;;;;;91.72;38.58;;;5.30;99.90;;;;;;5055853;28;20024;-71
2021/12/06 04:58:17;;;;;;;123.38;41.80;;;5.30;99.90;;;;;;5066724;28;20382;-71
2021/12/06 05:00:52;;;;;;;118.80;41.13;;;5.40;99.90;;;;;;5063009;28;20036;-71
2021/12/06 05:03:18;;;;;;;97.80;38.75;;;5.40;99.90;;;;;;5056794;28;20059;-71
2021/12/06 05:05:56;;;;;;;161.98;43.03;;;5.40;99.90;;;;;;5069062;28;20060;-71
2021/12/06 05:08:31;;;;;;;117.30;39.00;;;5.40;99.90;;;;;;5046516;28;20124;-71
2021/12/06 05:10:59;;;;;;;91.35;40.03;;;5.30;99.90;;;;;;5055211;28;20613;-71
2021/12/06 05:13:27;;;;;;;86.70;37.30;;;5.40;99.90;;;;;;5069048;28;20392;-71
2021/12/06 05:15:53;;;;;;;89.50;38.85;;;5.40;99.90;;;;;;5036668;28;20028;-71
2021/12/06 05:18:19;;;;;;;133.02;44.70;;;5.40;99.90;;;;;;5054475;28;20033;-71
2021/12/06 05:20:45;;;;;;;93.00;39.17;;;5.30;99.90;;;;;;5050656;28;20028;-71
2021/12/06 05:23:11;;;;;;;94.15;38.30;;;5.30;99.90;;;;;;5067217;28;20035;-71
2021/12/06 05:25:38;;;;;;;101.18;42.00;;;5.40;99.90;;;;;;5055226;28;20021;-71
2021/12/06 05:28:05;;;;;;;89.38;40.63;;;5.40;99.90;;;;;;5067047;28;20029;-72
2021/12/06 05:30:33;;;;;;;200.80;52.67;;;5.40;99.90;;;;;;5060808;28;20039;-72
2021/12/06 05:32:59;;;;;;;104.55;42.80;;;5.40;99.90;;;;;;5059172;28;20037;-71
2021/12/06 05:35:26;;;;;;;82.70;39.53;;;5.30;99.90;;;;;;5068965;28;20021;-71
2021/12/06 05:37:54;;;;;;;81.30;38.33;;;5.30;99.90;;;;;;5055811;28;20072;-71
2021/12/06 05:40:29;;;;;;;88.57;41.60;;;5.40;99.90;;;;;;5064868;28;20428;-72
2021/12/06 05:42:56;;;;;;;99.78;41.95;;;5.40;99.90;;;;;;5064456;28;20469;-72
2021/12/06 05:45:24;;;;;;;80.82;40.60;;;5.40;99.90;;;;;;5055775;28;20025;-72
2021/12/06 05:47:51;;;;;;;104.50;41.25;;;5.40;99.90;;;;;;5068899;28;20032;-72
2021/12/06 05:50:16;;;;;;;94.40;40.75;;;5.40;99.90;;;;;;5049237;28;20005;-72
2021/12/06 05:52:42;;;;;;;100.65;42.58;;;5.30;99.90;;;;;;5052822;28;20040;-72
2021/12/06 05:55:09;;;;;;;92.60;41.72;;;5.30;99.90;;;;;;5057316;28;20583;-72
2021/12/06 05:57:35;;;;;;;96.95;42.25;;;5.30;99.90;;;;;;5068148;28;20066;-72
2021/12/06 06:00:04;;;;;;;100.18;42.95;;;5.40;99.90;;;;;;5056951;28;20035;-72
2021/12/06 06:02:30;;;;;;;92.45;44.58;;;5.40;99.90;;;;;;5061377;28;20027;-72
2021/12/06 06:04:55;;;;;;;90.15;45.75;;;5.40;99.90;;;;;;5064721;28;20436;-72
2021/12/06 06:07:21;;;;;;;133.50;50.35;;;5.50;99.90;;;;;;5055908;28;20021;-72
2021/12/06 06:09:47;;;;;;;99.28;45.65;;;5.40;99.90;;;;;;5068465;28;20032;-72
2021/12/06 06:12:14;;;;;;;94.03;43.83;;;5.50;99.90;;;;;;5051889;28;20420;-71
2021/12/06 06:14:39;;;;;;;95.55;43.53;;;5.50;99.90;;;;;;5061783;28;20037;-71
2021/12/06 06:17:11;;;;;;;114.45;46.28;;;5.50;99.90;;;;;;5056572;28;20028;-72
2021/12/06 06:19:42;;;;;;;103.55;47.33;;;5.60;99.90;;;;;;5068177;28;20029;-72
2021/12/06 06:22:08;;;;;;;104.07;46.90;;;5.60;99.90;;;;;;5048269;28;20443;-72
2021/12/06 06:24:33;;;;;;;127.07;47.80;;;5.60;99.90;;;;;;5061840;28;20067;-71
2021/12/06 06:26:59;;;;;;;178.30;55.33;;;5.60;99.90;;;;;;5064859;28;20093;-72
2021/12/06 06:29:25;;;;;;;95.55;43.03;;;5.50;99.90;;;;;;5054846;28;20024;-72
2021/12/06 06:31:50;;;;;;;138.57;47.92;;;5.60;99.90;;;;;;5068005;28;20064;-72
2021/12/06 06:34:16;;;;;;;86.25;40.17;;;5.60;99.90;;;;;;5058835;28;20492;-71
2021/12/06 06:36:42;;;;;;;119.15;48.70;;;5.60;99.90;;;;;;5061115;28;20025;-71
2021/12/06 06:39:09;;;;;;;125.47;49.40;;;5.60;99.90;;;;;;5048613;28;20512;-71
2021/12/06 06:41:35;;;;;;;87.03;41.35;;;5.60;99.90;;;;;;5039033;28;20033;-72
2021/12/06 06:44:01;;;;;;;95.05;43.03;;;5.70;99.90;;;;;;5064282;28;20040;-72
2021/12/06 06:46:26;;;;;;;239.35;68.93;;;5.70;99.90;;;;;;5053833;28;20017;-72
2021/12/06 06:48:52;;;;;;;90.05;41.53;;;5.70;99.90;;;;;;5063527;28;20298;-72
2021/12/06 06:51:18;;;;;;;236.07;66.35;;;5.70;99.90;;;;;;5045301;28;20037;-72
2021/12/06 06:53:44;;;;;;;117.07;50.15;;;5.70;99.90;;;;;;5060143;28;20069;-72
2021/12/06 06:56:09;;;;;;;123.45;50.83;;;5.70;99.90;;;;;;5055706;28;20420;-72
2021/12/06 06:58:35;;;;;;;170.90;59.58;;;5.60;99.90;;;;;;5059764;28;20028;-72
2021/12/06 07:01:00;;;;;;;147.75;57.10;;;5.60;99.90;;;;;;5052803;28;20033;-72
2021/12/06 07:03:31;;;;;;;122.45;50.95;;;5.70;99.90;;;;;;5055700;28;20029;-72
2021/12/06 07:05:59;;;;;;;166.70;57.92;;;5.70;99.90;;;;;;5057754;28;20024;-72
2021/12/06 07:08:24;;;;;;;131.15;52.50;;;5.60;99.90;;;;;;5069775;28;20109;-72
2021/12/06 07:10:51;;;;;;;302.67;76.68;;;5.60;99.90;;;;;;5061951;28;20060;-72
2021/12/06 07:13:17;;;;;;;206.48;64.65;;;5.50;99.90;;;;;;5051174;28;20029;-72
2021/12/06 07:15:43;;;;;;;563.40;101.35;;;5.60;99.90;;;;;;5054565;28;20024;-72
2021/12/06 07:18:09;;;;;;;184.73;60.05;;;5.50;99.90;;;;;;5055901;28;20025;-72
2021/12/06 07:20:36;;;;;;;136.20;52.33;;;5.60;99.90;;;;;;5052659;28;20056;-72
2021/12/06 07:23:03;;;;;;;138.00;52.17;;;5.60;99.90;;;;;;5054090;28;20099;-72
2021/12/06 07:25:29;;;;;;;123.22;47.65;;;5.60;99.90;;;;;;5054482;28;20074;-72
2021/12/06 07:27:56;;;;;;;173.98;54.65;;;5.60;99.90;;;;;;5054726;28;20036;-72
2021/12/06 07:30:22;;;;;;;217.88;63.55;;;5.60;99.90;;;;;;5054049;28;20108;-72
2021/12/06 07:32:50;;;;;;;148.55;50.05;;;5.50;99.90;;;;;;5054162;28;20037;-72
2021/12/06 07:35:16;;;;;;;124.20;46.58;;;5.60;99.90;;;;;;5053997;28;20017;-72
2021/12/06 07:37:42;;;;;;;188.60;51.65;;;5.40;99.90;;;;;;5055173;28;20100;-72
2021/12/06 07:40:10;;;;;;;290.30;64.68;;;5.30;99.90;;;;;;5053814;28;20389;-72
2021/12/06 07:42:36;;;;;;;271.40;60.25;;;5.40;99.90;;;;;;5053597;28;20035;-73
2021/12/06 07:45:04;;;;;;;201.25;59.45;;;5.50;99.90;;;;;;5053887;28;20029;-72
2021/12/06 07:47:30;;;;;;;215.73;51.30;;;5.50;99.90;;;;;;5054866;28;20032;-72
2021/12/06 07:49:55;;;;;;;153.68;52.83;;;5.20;99.90;;;;;;5048696;28;20036;-72
2021/12/06 07:52:22;;;;;;;234.95;56.33;;;5.30;99.90;;;;;;5045874;28;20104;-72
2021/12/06 07:54:48;;;;;;;400.13;73.13;;;5.30;99.90;;;;;;5053169;28;20021;-72
2021/12/06 07:57:14;;;;;;;236.63;61.10;;;5.40;99.90;;;;;;5051705;28;20024;-74
2021/12/06 07:59:40;;;;;;;187.68;55.25;;;5.40;99.90;;;;;;5052983;28;20039;-74
2021/12/06 08:02:09;;;;;;;228.57;55.90;;;5.40;99.90;;;;;;5052735;28;20484;-73
2021/12/06 08:04:35;;;;;;;318.55;68.78;;;5.20;99.90;;;;;;5053879;28;20017;-72
2021/12/06 08:07:01;;;;;;;366.10;71.03;;;5.20;99.90;;;;;;5052054;28;20120;-73
2021/12/06 08:09:26;;;;;;;163.35;53.70;;;5.30;99.90;;;;;;5053333;28;20099;-73
2021/12/06 08:11:53;;;;;;;201.02;55.15;;;5.30;99.90;;;;;;5068608;28;20552;-73
2021/12/06 08:14:19;;;;;;;229.07;53.45;;;5.40;99.90;;;;;;5048536;28;20073;-73
2021/12/06 08:16:46;;;;;;;240.55;51.42;;;5.30;99.90;;;;;;5052594;28;20021;-73
2021/12/06 08:19:12;;;;;;;331.30;64.70;;;5.20;99.90;;;;;;5067834;28;20473;-73
2021/12/06 08:21:39;;;;;;;203.05;54.55;;;5.20;99.90;;;;;;5046555;28;20505;-73
2021/12/06 08:24:05;;;;;;;235.45;55.58;;;5.30;99.90;;;;;;5068050;28;20025;-72
2021/12/06 08:26:36;;;;;;;263.60;52.03;;;5.30;99.90;;;;;;5061481;28;20466;-73
2021/12/06 08:29:06;;;;;;;309.35;59.88;;;5.30;99.90;;;;;;5058384;28;20033;-73
2021/12/06 08:31:33;;;;;;;270.27;54.00;;;5.30;99.90;;;;;;5069253;28;20036;-73
2021/12/06 08:33:59;;;;;;;258.35;51.08;;;5.20;99.90;;;;;;5058900;28;20040;-73
2021/12/06 08:36:26;;;;;;;288.65;52.08;;;5.10;99.90;;;;;;5052484;28;20473;-73
2021/12/06 08:38:52;;;;;;;195.60;46.90;;;5.20;99.90;;;;;;5054613;28;20025;-73
2021/12/06 08:41:22;;;;;;;219.32;49.42;;;5.10;99.90;;;;;;5065770;28;20012;-73
2021/12/06 08:43:49;;;;;;;156.63;45.80;;;5.20;99.90;;;;;;5068285;28;20108;-73
2021/12/06 08:46:19;;;;;;;195.43;49.10;;;5.30;99.90;;;;;;5059663;28;20027;-73
2021/12/06 08:48:46;;;;;;;771.78;91.18;;;5.30;99.90;;;;;;5070723;28;20029;-73
2021/12/06 08:51:29;;;;;;;315.27;68.75;;;5.40;99.90;;;;;;5046235;28;20049;-73
2021/12/06 08:53:57;;;;;;;178.30;46.53;;;5.40;99.90;;;;;;5038629;28;20100;-73
2021/12/06 08:56:23;;;;;;;184.35;42.47;;;5.40;99.90;;;;;;5066382;28;20453;-73
2021/12/06 08:58:49;;;;;;;218.90;43.00;;;5.20;99.90;;;;;;5072030;28;20362;-73
2021/12/06 09:01:16;;;;;;;198.05;41.17;;;5.20;99.90;;;;;;5055252;28;20083;-73
2021/12/06 09:03:41;;;;;;;179.00;40.28;;;5.00;99.90;;;;;;5045607;28;20029;-73
2021/12/06 09:06:10;;;;;;;228.88;46.88;;;4.90;99.90;;;;;;5050818;28;20096;-73
2021/12/06 09:08:37;;;;;;;161.88;41.65;;;4.80;99.90;;;;;;5062054;28;20020;-73
2021/12/06 09:11:04;;;;;;;222.05;46.15;;;4.90;99.90;;;;;;5058516;28;20063;-74
2021/12/06 09:13:31;;;;;;;131.07;38.58;;;5.00;99.90;;;;;;5068034;28;20090;-75
2021/12/06 09:16:00;;;;;;;141.65;37.70;;;5.20;99.90;;;;;;5054353;28;20388;-73
2021/12/06 09:18:29;;;;;;;136.10;37.38;;;5.20;99.90;;;;;;5060723;28;20215;-74
2021/12/06 09:20:56;;;;;;;191.80;42.20;;;5.20;99.90;;;;;;5055060;28;20063;-74
2021/12/06 09:23:22;;;;;;;115.90;39.03;;;5.10;99.90;;;;;;5051051;28;20029;-74
2021/12/06 09:25:48;;;;;;;137.27;38.50;;;5.20;99.90;;;;;;5055834;28;20016;-74
2021/12/06 09:28:16;;;;;;;121.35;35.42;;;5.20;99.90;;;;;;5066779;28;20029;-74
2021/12/06 09:30:42;;;;;;;155.63;38.90;;;5.20;99.90;;;;;;5062563;28;20036;-73
2021/12/06 09:33:11;;;;;;;164.98;36.60;;;5.20;99.90;;;;;;5055899;28;20041;-73
2021/12/06 09:35:41;;;;;;;136.52;36.10;;;5.20;99.90;;;;;;5068887;28;20021;-73
2021/12/06 09:38:08;;;;;;;94.45;32.58;;;5.10;99.90;;;;;;5054219;28;20047;-74
2021/12/06 09:40:37;;;;;;;125.20;33.47;;;5.10;99.90;;;;;;5060042;28;20162;-73
2021/12/06 09:43:06;;;;;;;153.63;38.70;;;4.90;99.90;;;;;;5056734;28;20033;-73
2021/12/06 09:45:33;;;;;;;91.25;28.63;;;4.80;99.90;;;;;;5052523;28;20112;-73
2021/12/06 09:48:01;;;;;;;99.93;29.90;;;4.70;99.90;;;;;;5052943;28;20158;-73
2021/12/06 09:50:36;;;;;;;110.85;31.75;;;4.80;99.90;;;;;;5050050;28;20040;-73
2021/12/06 09:53:07;;;;;;;112.75;28.48;;;4.90;99.90;;;;;;5052173;28;20021;-72
2021/12/06 09:55:34;;;;;;;80.72;29.17;;;4.80;99.90;;;;;;5054401;28;20409;-72
2021/12/06 09:58:01;;;;;;;87.97;30.20;;;4.90;99.90;;;;;;5065360;28;20381;-73
2021/12/06 10:00:33;;;;;;;108.20;26.13;;;4.80;99.90;;;;;;5059322;28;20039;-74
2021/12/06 10:02:59;;;;;;;61.03;23.40;;;4.80;99.90;;;;;;5057513;28;20078;-73
2021/12/06 10:05:29;;;;;;;94.35;27.27;;;4.80;99.90;;;;;;5068280;28;20112;-73
2021/12/06 10:07:56;;;;;;;63.47;25.10;;;5.00;99.90;;;;;;5038394;28;20012;-73
2021/12/06 10:10:23;;;;;;;68.72;23.95;;;4.90;99.90;;;;;;5071423;28;20029;-73
2021/12/06 10:12:52;;;;;;;115.93;29.10;;;4.90;99.90;;;;;;5058744;28;20126;-73
2021/12/06 10:15:28;;;;;;;80.72;24.60;;;4.80;99.90;;;;;;5052296;28;20027;-72
2021/12/06 10:17:56;;;;;;;90.25;24.50;;;4.70;99.90;;;;;;5050063;28;20393;-72
2021/12/06 10:20:22;;;;;;;61.72;21.88;;;4.80;99.90;;;;;;5049324;28;20044;-71
2021/12/06 10:22:50;;;;;;;51.47;21.60;;;4.90;99.90;;;;;;5051469;28;20021;-72
2021/12/06 10:25:17;;;;;;;59.53;21.08;;;5.00;99.90;;;;;;5051412;28;20028;-71
2021/12/06 10:28:00;;;;;;;57.40;22.30;;;4.90;99.90;;;;;;5051311;28;20099;-72
2021/12/06 10:30:26;;;;;;;46.35;20.90;;;4.90;99.90;;;;;;5046196;28;20108;-72
2021/12/06 10:33:11;;;;;;;63.53;21.65;;;4.80;99.90;;;;;;5049546;28;20191;-72
2021/12/06 10:35:43;;;;;;;49.00;21.10;;;4.70;99.90;;;;;;5052867;28;20358;-72
2021/12/06 10:38:10;;;;;;;51.65;24.05;;;4.60;99.90;;;;;;5052905;28;20195;-72
2021/12/06 10:40:40;;;;;;;56.88;23.77;;;4.60;99.90;;;;;;5052344;28;20492;-72
2021/12/06 10:43:11;;;;;;;40.55;21.67;;;4.60;99.90;;;;;;5052094;28;20036;-73
2021/12/06 10:45:47;;;;;;;57.45;22.48;;;4.60;99.90;;;;;;5055139;28;20489;-73
2021/12/06 10:48:23;;;;;;;75.55;27.48;;;4.60;99.90;;;;;;5055831;28;20029;-73
2021/12/06 10:51:04;;;;;;;49.70;23.67;;;4.50;99.90;;;;;;5051795;28;20017;-73
2021/12/06 10:53:40;;;;;;;47.97;24.15;;;4.60;99.90;;;;;;5054785;28;20074;-73
2021/12/06 10:56:14;;;;;;;47.50;24.33;;;4.50;99.90;;;;;;5053726;28;20017;-73
2021/12/06 10:58:41;;;;;;;51.60;25.02;;;4.60;99.90;;;;;;5055822;28;20021;-73
2021/12/06 11:01:09;;;;;;;44.42;24.42;;;4.60;99.90;;;;;;5051380;28;20343;-73
2021/12/06 11:03:51;;;;;;;48.67;27.50;;;4.60;99.90;;;;;;5051256;28;20096;-73
2021/12/06 11:06:31;;;;;;;51.35;25.83;;;4.70;99.90;;;;;;5065517;28;20477;-73
2021/12/06 11:08:59;;;;;;;48.03;24.00;;;4.70;99.90;;;;;;5065869;28;20024;-73
2021/12/06 11:11:30;;;;;;;68.00;27.85;;;4.60;99.90;;;;;;5074417;28;20025;-73
2021/12/06 11:14:00;;;;;;;51.83;24.95;;;4.60;99.90;;;;;;5058502;28;20142;-73
2021/12/06 11:16:34;;;;;;;64.20;26.92;;;4.60;99.90;;;;;;5065410;28;20074;-73
2021/12/06 11:19:06;;;;;;;65.90;28.88;;;4.60;99.90;;;;;;5066870;28;20096;-73
2021/12/06 11:21:39;;;;;;;69.45;29.25;;;4.60;99.90;;;;;;5052523;28;20064;-73
2021/12/06 11:24:18;;;;;;;62.67;28.27;;;4.70;99.90;;;;;;5066555;28;20435;-73
2021/12/06 11:26:52;;;;;;;87.65;33.58;;;4.80;99.90;;;;;;5063169;28;20525;-73
2021/12/06 11:29:32;;;;;;;74.18;31.73;;;4.90;99.90;;;;;;5073580;28;20036;-73
2021/12/06 11:32:01;;;;;;;78.22;32.95;;;4.90;99.90;;;;;;5042634;28;20029;-73
2021/12/06 11:34:36;;;;;;;88.85;33.20;;;4.90;99.90;;;;;;5062273;28;20095;-75
2021/12/06 11:37:09;;;;;;;88.70;33.80;;;5.00;99.90;;;;;;5065932;28;20109;-73
2021/12/06 11:39:35;;;;;;;92.13;33.75;;;5.00;99.90;;;;;;5056272;28;20097;-73
2021/12/06 11:42:01;;;;;;;101.32;36.03;;;5.00;99.90;;;;;;5069084;28;20123;-73
2021/12/06 11:44:31;;;;;;;92.07;33.97;;;4.90;99.90;;;;;;5053201;28;20056;-73
2021/12/06 11:47:05;;;;;;;99.43;36.03;;;5.00;99.90;;;;;;5051452;28;20021;-73
2021/12/06 11:49:45;;;;;;;86.60;34.28;;;5.00;99.90;;;;;;5055098;28;20038;-73
2021/12/06 11:52:16;;;;;;;83.28;35.70;;;5.00;99.90;;;;;;5047971;28;20020;-73
2021/12/06 11:55:05;;;;;;;102.57;37.38;;;4.90;99.90;;;;;;5062159;28;20037;-73
2021/12/06 11:57:36;;;;;;;90.72;33.45;;;5.10;99.90;;;;;;5059332;28;20067;-73
2021/12/06 12:00:23;;;;;;;88.70;34.53;;;5.10;99.90;;;;;;5056924;28;20059;-73
2021/12/06 12:02:56;;;;;;;94.82;35.17;;;5.20;99.90;;;;;;5063349;28;20025;-73
2021/12/06 12:05:30;;;;;;;84.75;34.03;;;5.30;99.90;;;;;;5068614;28;20035;-73
2021/12/06 12:08:16;;;;;;;84.30;34.53;;;5.30;99.90;;;;;;5041464;28;20066;-73
2021/12/06 12:10:51;;;;;;;88.15;34.17;;;5.40;99.90;;;;;;5063038;28;20035;-73
2021/12/06 12:13:23;;;;;;;80.78;34.30;;;5.40;99.90;;;;;;5068750;28;20032;-73
2021/12/06 12:15:53;;;;;;;;;;;5.40;99.90;;;;;;5069574;28;20025;-74
2021/12/06 12:18:20;;;;;;;85.25;33.25;;;5.50;99.90;;;;;;5055005;28;19959;-73
2021/12/06 12:20:47;;;;;;;86.25;33.70;;;5.60;99.90;;;;;;5049507;28;20021;-73
2021/12/06 12:23:13;;;;;;;83.97;35.00;;;5.80;99.90;;;;;;5063062;28;20040;-73
2021/12/06 12:25:49;;;;;;;82.35;34.97;;;5.80;99.90;;;;;;5055117;28;20032;-73
2021/12/06 12:28:30;;;;;;;76.00;33.30;;;5.70;99.90;;;;;;5072966;28;20099;-73
2021/12/06 12:30:58;;;;;;;71.07;31.33;;;5.70;99.90;;;;;;5059906;28;20094;-73
2021/12/06 12:33:24;;;;;;;76.20;31.33;;;5.70;99.90;;;;;;5049749;28;20386;-74
2021/12/06 12:35:55;;;;;;;75.10;32.40;;;5.70;99.90;;;;;;5069042;28;20090;-73
2021/12/06 12:38:27;;;;;;;75.72;31.77;;;5.80;99.90;;;;;;5060713;28;20020;-73
2021/12/06 12:41:01;;;;;;;77.25;33.45;;;5.70;99.90;;;;;;5060646;28;20017;-73
2021/12/06 12:43:36;;;;;;;71.20;31.77;;;5.90;99.90;;;;;;5060351;28;20036;-73
2021/12/06 12:46:24;;;;;;;73.82;32.42;;;5.80;99.90;;;;;;5061445;28;20102;-73
2021/12/06 12:49:02;;;;;;;68.80;29.73;;;5.80;99.90;;;;;;5051319;28;20469;-73
2021/12/06 12:51:33;;;;;;;68.80;31.30;;;6.00;99.90;;;;;;5050573;28;20025;-73
2021/12/06 12:54:01;;;;;;;60.05;29.15;;;6.10;99.90;;;;;;5048648;28;20033;-73